Time;durP1;ratioP1;P1;durP2;ratioP2;P2;SDS_P1;SDS_P2;PMS_P1;PMS_P2;Temp;Humidity;BMP_temperature;BMP_pressure;BME280_temperature;BME280_humidity;BME280_pressure;Samples;Min_cycle;Max_cycle;Signal;HPM_P1;HPM_P2
2022/11/03 00:01:39;;;;;;;14.40;2.83;;;11.00;99.90;;;;;;4999446;28;20471;-78
2022/11/03 00:04:06;;;;;;;11.30;2.83;;;11.00;99.90;;;;;;4965469;28;20071;-78
2022/11/03 00:06:33;;;;;;;13.25;3.03;;;11.00;99.90;;;;;;4973675;28;20426;-77
2022/11/03 00:09:01;;;;;;;12.63;2.83;;;11.00;99.90;;;;;;4953188;28;20185;-78
2022/11/03 00:11:27;;;;;;;12.07;2.38;;;11.00;99.90;;;;;;4985674;28;20542;-77
2022/11/03 00:13:53;;;;;;;13.15;2.72;;;11.00;99.90;;;;;;4989121;28;20046;-79
2022/11/03 00:16:19;;;;;;;11.45;2.65;;;11.10;99.90;;;;;;4957606;28;20051;-77
2022/11/03 00:18:45;;;;;;;12.85;2.90;;;11.20;99.90;;;;;;4988352;28;20047;-78
2022/11/03 00:21:12;;;;;;;12.55;2.72;;;11.20;99.90;;;;;;4963664;28;20475;-81
2022/11/03 00:23:40;;;;;;;13.20;2.80;;;11.20;99.90;;;;;;4982228;28;20077;-80
2022/11/03 00:26:13;;;;;;;11.48;2.78;;;11.20;99.90;;;;;;4953470;28;21340;-77
2022/11/03 00:28:41;;;;;;;12.77;2.95;;;11.20;99.90;;;;;;4969316;28;20043;-78
2022/11/03 00:31:22;;;;;;;13.35;2.83;;;11.30;99.90;;;;;;4969438;28;20055;-76
2022/11/03 00:33:48;;;;;;;15.70;2.83;;;11.30;99.90;;;;;;4985198;28;20039;-77
2022/11/03 00:36:22;;;;;;;12.13;2.67;;;11.20;99.90;;;;;;4982631;28;20053;-77
2022/11/03 00:38:48;;;;;;;12.85;2.63;;;11.20;99.90;;;;;;4953427;28;20420;-81
2022/11/03 00:41:16;;;;;;;13.27;2.67;;;11.20;99.90;;;;;;4983381;28;20467;-78
2022/11/03 00:43:42;;;;;;;10.90;2.50;;;11.20;99.90;;;;;;4998241;28;20085;-77
2022/11/03 00:46:08;;;;;;;12.18;2.85;;;11.20;99.90;;;;;;4985750;28;20480;-78
2022/11/03 00:48:35;;;;;;;12.60;2.90;;;11.20;99.90;;;;;;4957792;28;20365;-80
2022/11/03 00:51:19;;;;;;;13.82;2.90;;;11.10;99.90;;;;;;5004891;28;20043;-79
2022/11/03 00:53:56;;;;;;;15.88;2.90;;;11.10;99.90;;;;;;4939724;28;20071;-77
2022/11/03 00:56:34;;;;;;;14.88;2.90;;;11.10;99.90;;;;;;4953791;28;20043;-78
2022/11/03 00:59:01;;;;;;;13.73;2.67;;;11.50;99.90;;;;;;4960452;28;20058;-80
2022/11/03 01:01:33;;;;;;;16.60;3.05;;;11.00;99.90;;;;;;4966353;28;20035;-78
2022/11/03 01:06:49;;;;;;;17.05;3.42;;;10.90;99.90;;;;;;4989003;28;20086;-78
2022/11/03 01:09:15;;;;;;;12.07;2.90;;;10.90;99.90;;;;;;4944093;28;20030;-78
2022/11/03 01:11:44;;;;;;;12.32;2.95;;;10.90;99.90;;;;;;4982713;28;20483;-78
2022/11/03 01:14:12;;;;;;;15.13;2.90;;;10.80;99.90;;;;;;5000844;28;20050;-80
2022/11/03 01:16:39;;;;;;;14.27;3.10;;;10.90;99.90;;;;;;4989370;28;20097;-81
2022/11/03 01:19:05;;;;;;;15.43;2.97;;;10.90;99.90;;;;;;4955496;28;20481;-79
2022/11/03 01:21:32;;;;;;;13.10;2.70;;;10.90;99.90;;;;;;4946871;28;20046;-80
2022/11/03 01:24:00;;;;;;;11.82;2.63;;;11.00;99.90;;;;;;4968811;28;20062;-78
2022/11/03 01:26:26;;;;;;;13.32;3.05;;;10.90;99.90;;;;;;4988868;28;20070;-79
2022/11/03 01:28:52;;;;;;;14.27;2.78;;;10.90;99.90;;;;;;4956134;28;20054;-77
2022/11/03 01:31:24;;;;;;;11.52;2.95;;;10.90;99.90;;;;;;4956072;28;20383;-78
2022/11/03 01:33:52;;;;;;;13.95;3.08;;;10.90;99.90;;;;;;4955621;28;20053;-78
2022/11/03 01:36:18;;;;;;;12.10;2.70;;;10.90;99.90;;;;;;4969132;28;20038;-78
2022/11/03 01:38:44;;;;;;;11.18;2.80;;;10.90;99.90;;;;;;4964080;28;20093;-81
2022/11/03 01:41:14;;;;;;;11.82;2.70;;;10.90;99.90;;;;;;4993053;28;20043;-77
2022/11/03 01:43:41;;;;;;;15.52;3.10;;;11.00;99.90;;;;;;4987888;28;20043;-78
2022/11/03 01:46:11;;;;;;;13.65;2.65;;;10.90;99.90;;;;;;4957735;28;20083;-78
2022/11/03 01:48:45;;;;;;;15.00;2.72;;;10.90;99.90;;;;;;4958880;28;20432;-78
2022/11/03 01:51:14;;;;;;;12.75;2.75;;;10.90;99.90;;;;;;4987904;28;20050;-79
2022/11/03 01:53:42;;;;;;;13.93;2.90;;;10.90;99.90;;;;;;4988154;28;20360;-80
2022/11/03 01:56:09;;;;;;;10.75;2.83;;;10.90;99.90;;;;;;4956236;28;20051;-77
2022/11/03 01:58:38;;;;;;;16.20;3.15;;;10.90;99.90;;;;;;4987930;28;20123;-79
2022/11/03 02:01:04;;;;;;;16.55;3.20;;;10.90;99.90;;;;;;4988562;23;20081;-79
2022/11/03 02:03:35;;;;;;;11.52;2.70;;;11.00;99.90;;;;;;4982185;28;20486;-79
2022/11/03 02:06:02;;;;;;;15.23;2.88;;;10.90;99.90;;;;;;4990480;28;20390;-79
2022/11/03 02:08:46;;;;;;;13.20;2.70;;;10.90;99.90;;;;;;4995473;23;20104;-80
2022/11/03 02:13:57;;;;;;;14.05;3.00;;;10.90;99.90;;;;;;4974051;28;20064;-77
2022/11/03 02:16:25;;;;;;;10.90;2.70;;;11.00;99.90;;;;;;4975205;28;20125;-77
2022/11/03 02:18:52;;;;;;;13.02;2.65;;;11.00;99.90;;;;;;4974701;28;20054;-78
2022/11/03 02:21:55;;;;;;;14.48;2.55;;;10.90;99.90;;;;;;4974871;28;20109;-81
2022/11/03 02:24:33;;;;;;;14.45;2.95;;;10.90;99.90;;;;;;4974942;28;20446;-77
2022/11/03 02:26:59;;;;;;;11.27;2.90;;;10.90;99.90;;;;;;4975045;28;20059;-77
2022/11/03 02:29:24;;;;;;;12.52;2.80;;;10.90;99.90;;;;;;4975835;28;20047;-78
2022/11/03 02:32:01;;;;;;;12.07;2.97;;;11.00;99.90;;;;;;4974686;28;20043;-77
2022/11/03 02:34:57;;;;;;;11.27;2.47;;;10.90;99.90;;;;;;4974146;28;20126;-77
2022/11/03 02:37:27;;;;;;;16.70;3.22;;;10.90;99.90;;;;;;4973460;28;20054;-78
2022/11/03 02:40:10;;;;;;;15.05;2.70;;;10.90;99.90;;;;;;4974653;28;20109;-81
2022/11/03 02:42:39;;;;;;;15.13;3.17;;;11.00;99.90;;;;;;4974520;28;20402;-78
2022/11/03 02:45:08;;;;;;;11.88;2.90;;;11.00;99.90;;;;;;4974336;28;20047;-78
2022/11/03 02:47:36;;;;;;;12.75;2.67;;;10.90;99.90;;;;;;4974692;28;20061;-79
2022/11/03 02:50:06;;;;;;;10.70;2.92;;;10.90;99.90;;;;;;4973517;28;20529;-76
2022/11/03 02:52:34;;;;;;;12.43;3.20;;;11.00;99.90;;;;;;4974538;28;20105;-77
2022/11/03 02:55:22;;;;;;;12.50;2.88;;;11.00;99.90;;;;;;4974121;28;20058;-78
2022/11/03 02:58:06;;;;;;;11.57;2.63;;;11.00;99.90;;;;;;4974016;28;20047;-79
2022/11/03 03:00:52;;;;;;;14.85;3.28;;;11.10;99.90;;;;;;4974339;28;20267;-81
2022/11/03 03:03:23;;;;;;;11.35;2.88;;;11.10;99.90;;;;;;4973396;28;20133;-77
2022/11/03 03:05:53;;;;;;;14.38;3.28;;;11.00;99.90;;;;;;4955136;28;20043;-78
2022/11/03 03:08:20;;;;;;;12.18;2.90;;;11.00;99.90;;;;;;4954370;29;20059;-77
2022/11/03 03:10:48;;;;;;;11.25;2.78;;;11.00;99.90;;;;;;4939085;29;20475;-77
2022/11/03 03:13:18;;;;;;;13.80;3.33;;;11.00;99.90;;;;;;4954650;28;20379;-78
2022/11/03 03:15:56;;;;;;;10.75;3.00;;;11.00;99.90;;;;;;4954799;29;20050;-78
2022/11/03 03:18:34;;;;;;;12.80;3.10;;;10.90;99.90;;;;;;4953964;28;20053;-78
2022/11/03 03:21:06;;;;;;;13.00;3.13;;;10.90;99.90;;;;;;4954894;29;20073;-76
2022/11/03 03:23:35;;;;;;;14.00;3.17;;;10.90;99.90;;;;;;4954459;28;20150;-77
2022/11/03 03:26:09;;;;;;;11.43;3.00;;;10.90;99.90;;;;;;4954565;28;20487;-78
2022/11/03 03:28:58;;;;;;;13.88;3.28;;;10.90;99.90;;;;;;4954503;28;20047;-78
2022/11/03 03:31:28;;;;;;;13.80;3.20;;;10.90;99.90;;;;;;4938643;28;20047;-77
2022/11/03 03:33:57;;;;;;;13.75;3.20;;;10.90;99.90;;;;;;4954814;28;20122;-78
2022/11/03 03:36:24;;;;;;;12.50;3.00;;;10.90;99.90;;;;;;4954278;29;20062;-79
2022/11/03 03:38:57;;;;;;;12.75;2.95;;;10.90;99.90;;;;;;4954184;29;20130;-80
2022/11/03 03:41:25;;;;;;;15.43;3.25;;;10.90;99.90;;;;;;4938495;28;20048;-81
2022/11/03 03:43:55;;;;;;;13.73;2.95;;;10.90;99.90;;;;;;4954234;28;20537;-78
2022/11/03 03:46:23;;;;;;;12.27;3.00;;;10.90;99.90;;;;;;4954166;28;20058;-80
2022/11/03 03:48:49;;;;;;;13.27;3.08;;;10.90;99.90;;;;;;4953465;28;20047;-79
2022/11/03 03:51:18;;;;;;;12.65;3.00;;;10.90;99.90;;;;;;4954366;28;20117;-77
2022/11/03 03:53:50;;;;;;;13.90;3.30;;;10.90;99.90;;;;;;4954187;29;20483;-78
2022/11/03 03:56:22;;;;;;;14.07;3.10;;;10.90;99.90;;;;;;4938456;28;20059;-82
2022/11/03 03:58:48;;;;;;;14.27;3.15;;;10.90;99.90;;;;;;4954190;29;20047;-78
2022/11/03 04:01:13;;;;;;;11.82;3.10;;;10.90;99.90;;;;;;4954344;29;20134;-79
2022/11/03 04:03:39;;;;;;;10.65;3.00;;;10.90;99.90;;;;;;4954288;28;20107;-80
2022/11/03 04:06:05;;;;;;;15.95;3.17;;;10.90;99.90;;;;;;4954395;29;20483;-79
2022/11/03 04:08:30;;;;;;;13.65;3.10;;;10.90;99.90;;;;;;4937569;29;20086;-80
2022/11/03 04:24:38;;;;;;;16.90;3.20;;;10.80;99.90;;;;;;4970020;28;20110;-78
2022/11/03 04:27:29;;;;;;;11.90;3.30;;;10.80;99.90;;;;;;4954219;28;20051;-77
2022/11/03 04:30:16;;;;;;;14.45;3.13;;;10.90;99.90;;;;;;4953661;28;20054;-77
2022/11/03 04:32:45;;;;;;;11.68;2.92;;;10.90;99.90;;;;;;4953759;29;20126;-78
2022/11/03 04:35:20;;;;;;;12.50;3.10;;;10.90;99.90;;;;;;4952825;28;20055;-83
2022/11/03 04:38:01;;;;;;;11.88;3.08;;;10.90;99.90;;;;;;4955445;28;20055;-78
2022/11/03 04:40:27;;;;;;;12.27;2.90;;;10.90;99.90;;;;;;4957898;28;20087;-78
2022/11/03 04:42:54;;;;;;;14.55;3.70;;;10.80;99.90;;;;;;4957402;29;20439;-77
2022/11/03 04:45:27;;;;;;;11.57;3.20;;;10.80;99.90;;;;;;4957755;28;20055;-78
2022/11/03 04:47:54;;;;;;;13.35;3.30;;;10.80;99.90;;;;;;4956160;29;20134;-81
2022/11/03 04:50:22;;;;;;;12.80;3.10;;;10.80;99.90;;;;;;4941767;28;20047;-78
2022/11/03 04:52:54;;;;;;;11.27;3.22;;;10.80;99.90;;;;;;4957160;29;20096;-78
2022/11/03 04:55:19;;;;;;;14.23;3.15;;;10.70;99.90;;;;;;4957597;29;20058;-81
2022/11/03 04:57:45;;;;;;;11.80;3.25;;;10.80;99.90;;;;;;4941522;29;20407;-78
2022/11/03 05:00:16;;;;;;;11.88;2.90;;;10.80;99.90;;;;;;4957220;29;20047;-77
2022/11/03 05:02:46;;;;;;;14.30;3.10;;;10.80;99.90;;;;;;4957348;28;20058;-78
2022/11/03 05:05:16;;;;;;;14.23;3.20;;;10.80;99.90;;;;;;4940199;28;20063;-77
2022/11/03 05:07:42;;;;;;;13.30;3.20;;;10.80;99.90;;;;;;4956718;29;20063;-77
2022/11/03 05:10:14;;;;;;;13.90;3.10;;;10.80;99.90;;;;;;4956786;28;20055;-77
2022/11/03 05:12:40;;;;;;;12.27;3.03;;;10.80;99.90;;;;;;4956872;28;20055;-77
2022/11/03 05:15:25;;;;;;;13.15;3.10;;;10.80;99.90;;;;;;4940832;29;20211;-78
2022/11/03 05:17:51;;;;;;;10.93;2.97;;;10.70;99.90;;;;;;4956318;28;20138;-78
2022/11/03 05:20:34;;;;;;;11.23;2.80;;;10.80;99.90;;;;;;4956907;28;20087;-78
2022/11/03 05:23:03;;;;;;;12.25;2.65;;;10.80;99.90;;;;;;4956613;28;20422;-79
2022/11/03 05:25:41;;;;;;;12.38;3.20;;;10.80;99.90;;;;;;4956635;28;20059;-76
2022/11/03 05:28:15;;;;;;;10.43;2.75;;;10.80;99.90;;;;;;4956723;28;20122;-76
2022/11/03 05:30:40;;;;;;;11.65;2.90;;;10.80;99.90;;;;;;4956909;29;20391;-80
2022/11/03 05:33:34;;;;;;;13.27;3.10;;;10.90;99.90;;;;;;4955461;29;20046;-78
2022/11/03 05:36:04;;;;;;;12.38;2.95;;;10.80;99.90;;;;;;4957586;28;20117;-79
2022/11/03 05:38:32;;;;;;;15.65;3.72;;;10.80;99.90;;;;;;4940657;28;20095;-78
2022/11/03 05:40:58;;;;;;;10.30;2.75;;;10.70;99.90;;;;;;4939913;28;20483;-78
2022/11/03 05:43:26;;;;;;;13.73;3.30;;;10.80;99.90;;;;;;4956048;28;20062;-78
2022/11/03 05:45:56;;;;;;;12.10;2.90;;;10.70;99.90;;;;;;4956172;28;20055;-78
2022/11/03 05:48:39;;;;;;;14.18;3.17;;;10.70;99.90;;;;;;4955054;28;20056;-78
2022/11/03 05:51:21;;;;;;;15.80;3.28;;;10.70;99.90;;;;;;4947746;28;20055;-79
2022/11/03 05:53:52;;;;;;;;;;;10.80;99.90;;;;;;4959864;28;20455;-79
2022/11/03 05:56:21;;;;;;;12.20;2.97;;;10.80;99.90;;;;;;4963168;28;20432;-78
2022/11/03 05:58:49;;;;;;;14.07;3.60;;;10.80;99.90;;;;;;4956496;28;20050;-77
2022/11/03 06:01:17;;;;;;;12.20;2.80;;;10.80;99.90;;;;;;4949774;28;20381;-78
2022/11/03 06:03:44;;;;;;;13.68;2.95;;;10.70;99.90;;;;;;4955725;28;20505;-79
2022/11/03 06:06:21;;;;;;;12.90;3.20;;;10.80;99.90;;;;;;4950084;28;20046;-78
2022/11/03 06:08:48;;;;;;;12.48;3.15;;;10.80;99.90;;;;;;4955239;28;20503;-79
2022/11/03 06:11:31;;;;;;;10.23;2.58;;;10.80;99.90;;;;;;4964242;28;20052;-80
2022/11/03 06:13:58;;;;;;;12.52;2.90;;;11.00;99.90;;;;;;4952134;28;20047;-80
2022/11/03 06:16:42;;;;;;;16.05;3.50;;;11.00;99.90;;;;;;4943545;28;20046;-79
2022/11/03 06:19:22;;;;;;;13.25;3.13;;;11.00;99.90;;;;;;4960426;28;20091;-78
2022/11/03 06:21:51;;;;;;;13.30;3.20;;;11.00;99.90;;;;;;4938355;28;20054;-78
2022/11/03 06:24:20;;;;;;;13.10;3.00;;;11.00;99.90;;;;;;4936157;28;20047;-82
2022/11/03 06:26:46;;;;;;;11.65;3.25;;;11.00;99.90;;;;;;4951693;28;20054;-81
2022/11/03 06:29:15;;;;;;;10.13;2.78;;;10.90;99.90;;;;;;4938239;29;20051;-79
2022/11/03 06:31:43;;;;;;;13.02;3.10;;;11.00;99.90;;;;;;4953747;28;20431;-77
2022/11/03 06:34:52;;;;;;;12.00;2.88;;;11.00;99.90;;;;;;4953328;28;20054;-78
2022/11/03 06:37:31;;;;;;;12.82;2.90;;;10.90;99.90;;;;;;4956304;28;20055;-77
2022/11/03 06:40:00;;;;;;;12.88;3.10;;;11.00;99.90;;;;;;4946947;28;20275;-78
2022/11/03 06:42:30;;;;;;;12.50;3.20;;;10.90;99.90;;;;;;4944625;28;20043;-77
2022/11/03 06:44:56;;;;;;;11.93;3.13;;;10.90;99.90;;;;;;4946327;28;20095;-79
2022/11/03 06:47:28;;;;;;;16.70;3.35;;;10.90;99.90;;;;;;4948080;28;20542;-78
2022/11/03 06:49:58;;;;;;;11.35;3.08;;;10.90;99.90;;;;;;4943234;28;20052;-78
2022/11/03 06:52:34;;;;;;;12.40;2.92;;;10.90;99.90;;;;;;4945558;28;20087;-77
2022/11/03 06:55:20;;;;;;;14.57;3.38;;;10.90;99.90;;;;;;4959329;28;20059;-79
2022/11/03 06:57:50;;;;;;;13.68;3.03;;;10.90;99.90;;;;;;4942265;28;20047;-80
2022/11/03 07:00:22;;;;;;;11.50;3.22;;;10.90;99.90;;;;;;4942568;28;20114;-81
2022/11/03 07:02:55;;;;;;;;;;;11.00;99.90;;;;;;4941711;28;20056;-80
2022/11/03 07:05:22;;;;;;;;;;;11.00;99.90;;;;;;4947870;28;19922;-79
2022/11/03 07:07:48;;;;;;;12.77;2.80;;;11.00;99.90;;;;;;4949022;28;19930;-84
2022/11/03 07:10:14;;;;;;;12.52;3.10;;;11.00;99.90;;;;;;4945781;28;20472;-80
2022/11/03 07:12:41;;;;;;;12.93;3.28;;;11.00;99.90;;;;;;4940889;28;20049;-78
2022/11/03 07:15:23;;;;;;;11.80;3.03;;;11.00;99.90;;;;;;4948973;28;20059;-79
2022/11/03 07:17:49;;;;;;;13.27;3.10;;;10.90;99.90;;;;;;4942934;28;20561;-82
2022/11/03 07:20:16;;;;;;;11.82;3.47;;;10.90;99.90;;;;;;4933658;29;20088;-78
2022/11/03 07:22:44;;;;;;;9.90;2.60;;;10.90;99.90;;;;;;4946483;28;20048;-77
2022/11/03 07:25:16;;;;;;;13.00;3.10;;;11.00;99.90;;;;;;4946451;28;20088;-77
2022/11/03 07:27:42;;;;;;;11.00;3.25;;;10.90;99.90;;;;;;4948059;28;20059;-81
2022/11/03 07:30:22;;;;;;;11.75;3.13;;;10.90;99.90;;;;;;4950976;28;20044;-78
2022/11/03 07:32:52;;;;;;;12.18;3.20;;;11.00;99.90;;;;;;4945473;28;20053;-78
2022/11/03 07:35:35;;;;;;;12.50;3.22;;;10.90;99.90;;;;;;4943746;28;20051;-81
2022/11/03 07:38:08;;;;;;;13.18;3.28;;;11.00;99.90;;;;;;4945849;28;20082;-80
2022/11/03 07:40:34;;;;;;;13.95;3.00;;;11.00;99.90;;;;;;4943055;28;20079;-79
2022/11/03 07:43:12;;;;;;;14.48;3.20;;;11.00;99.90;;;;;;4959354;28;20126;-80
2022/11/03 07:45:46;;;;;;;12.70;3.00;;;11.00;99.90;;;;;;4942431;28;20130;-78
2022/11/03 07:48:23;;;;;;;12.10;3.10;;;11.10;99.90;;;;;;4960925;28;20154;-80
2022/11/03 07:50:54;;;;;;;13.00;3.67;;;11.10;99.90;;;;;;4942906;29;20396;-80
2022/11/03 07:53:42;;;;;;;14.05;3.20;;;11.10;99.90;;;;;;4949097;28;20501;-79
2022/11/03 07:56:32;;;;;;;11.95;3.20;;;11.10;99.90;;;;;;4942204;28;20186;-82
2022/11/03 07:59:07;;;;;;;14.32;3.20;;;11.20;99.90;;;;;;4946051;28;20132;-79
2022/11/03 08:01:40;;;;;;;14.55;3.38;;;11.20;99.90;;;;;;4955610;28;20503;-78
2022/11/03 08:04:09;;;;;;;10.90;3.35;;;11.20;99.90;;;;;;4948559;28;20051;-82
2022/11/03 08:06:35;;;;;;;16.30;3.60;;;11.30;99.90;;;;;;4945918;28;20059;-80
2022/11/03 08:09:01;;;;;;;10.65;3.25;;;11.30;99.90;;;;;;4961309;28;20055;-79
2022/11/03 08:11:26;;;;;;;11.82;3.53;;;11.40;99.90;;;;;;4947394;28;20062;-77
2022/11/03 08:13:52;;;;;;;10.10;3.08;;;11.40;99.90;;;;;;4950985;29;20059;-81
2022/11/03 08:16:19;;;;;;;12.88;3.30;;;11.50;99.90;;;;;;4952075;28;20062;-79
2022/11/03 08:18:45;;;;;;;13.52;3.30;;;11.50;99.90;;;;;;4944702;28;20083;-83
2022/11/03 08:21:11;;;;;;;12.00;3.50;;;11.50;99.90;;;;;;4953446;28;20075;-82
2022/11/03 08:23:38;;;;;;;21.13;3.55;;;11.50;99.90;;;;;;4947922;28;20051;-80
2022/11/03 08:26:04;;;;;;;13.55;3.42;;;11.60;99.90;;;;;;4947920;28;20186;-79
2022/11/03 08:28:30;;;;;;;12.10;3.50;;;11.60;99.90;;;;;;4960137;28;20508;-77
2022/11/03 08:31:00;;;;;;;15.10;3.67;;;11.60;99.90;;;;;;4947443;28;20059;-78
2022/11/03 08:33:27;;;;;;;15.05;3.50;;;11.70;99.90;;;;;;4948547;28;20098;-83
2022/11/03 08:35:53;;;;;;;11.15;3.45;;;11.70;99.90;;;;;;4950726;29;20047;-78
2022/11/03 08:38:18;;;;;;;11.20;3.47;;;11.80;99.90;;;;;;4949296;28;20455;-81
2022/11/03 08:40:44;;;;;;;12.35;3.20;;;11.90;99.90;;;;;;4961721;28;20051;-78
2022/11/03 08:43:10;;;;;;;12.98;3.80;;;11.90;99.90;;;;;;4948198;28;20050;-78
2022/11/03 08:45:36;;;;;;;15.68;3.70;;;11.90;99.90;;;;;;4946349;28;20043;-79
2022/11/03 08:48:05;;;;;;;12.20;3.20;;;12.10;99.90;;;;;;4936921;29;20058;-79
2022/11/03 08:50:30;;;;;;;13.75;3.53;;;12.10;99.90;;;;;;4952446;28;20050;-78
2022/11/03 08:52:56;;;;;;;14.15;3.40;;;12.30;99.90;;;;;;4944491;28;20047;-81
2022/11/03 08:55:22;;;;;;;12.07;3.20;;;12.30;99.90;;;;;;4950951;28;20055;-79
2022/11/03 08:57:47;;;;;;;13.48;3.33;;;12.40;99.90;;;;;;4946480;29;20047;-78
2022/11/03 09:00:15;;;;;;;14.88;3.70;;;12.50;99.90;;;;;;4950563;28;20043;-78
2022/11/03 09:02:44;;;;;;;11.48;3.05;;;12.50;99.90;;;;;;4954840;28;20051;-82
2022/11/03 09:05:11;;;;;;;14.20;3.22;;;12.60;99.90;;;;;;4946509;28;20051;-82
2022/11/03 09:07:38;;;;;;;12.10;3.38;;;12.60;99.90;;;;;;4934629;28;20051;-78
2022/11/03 09:10:06;;;;;;;12.18;3.38;;;12.70;99.90;;;;;;4939917;28;20059;-79
2022/11/03 09:12:32;;;;;;;10.85;3.08;;;12.70;99.90;;;;;;4895074;28;20046;-81
2022/11/03 09:14:58;;;;;;;12.60;3.17;;;12.70;99.90;;;;;;4962780;28;20110;-81
2022/11/03 09:17:23;;;;;;;15.52;3.47;;;12.70;99.90;;;;;;4982920;28;20415;-82
2022/11/03 09:19:49;;;;;;;12.98;3.30;;;12.80;99.90;;;;;;4971007;28;20133;-78
2022/11/03 09:22:15;;;;;;;12.05;3.45;;;12.80;99.90;;;;;;4965178;28;20055;-80
2022/11/03 09:24:40;;;;;;;12.07;3.42;;;12.80;99.90;;;;;;4960278;28;20082;-81
2022/11/03 09:27:06;;;;;;;13.93;3.38;;;12.90;99.90;;;;;;4978227;28;20051;-77
2022/11/03 09:29:32;;;;;;;13.55;3.15;;;12.90;99.90;;;;;;4946311;28;20045;-78
2022/11/03 09:31:57;;;;;;;13.80;3.40;;;13.00;99.90;;;;;;4958609;28;20047;-77
2022/11/03 09:34:23;;;;;;;13.05;3.40;;;13.00;99.90;;;;;;4978789;28;20110;-77
2022/11/03 09:36:49;;;;;;;13.55;3.60;;;13.00;99.90;;;;;;4975180;28;20055;-77
2022/11/03 09:39:15;;;;;;;11.13;3.17;;;13.10;99.90;;;;;;4977535;28;20586;-76
2022/11/03 09:41:41;;;;;;;13.43;3.45;;;13.20;99.90;;;;;;4958037;28;20155;-77
2022/11/03 09:44:06;;;;;;;15.50;3.70;;;13.40;99.90;;;;;;4960416;28;20075;-78
2022/11/03 09:46:34;;;;;;;12.73;3.45;;;13.50;99.90;;;;;;4968526;28;20394;-79
2022/11/03 09:49:01;;;;;;;10.02;3.05;;;13.60;99.90;;;;;;4967845;28;20109;-80
2022/11/03 09:51:27;;;;;;;13.85;3.15;;;13.80;99.90;;;;;;4961813;28;20043;-78
2022/11/03 09:53:56;;;;;;;13.77;3.25;;;13.90;99.90;;;;;;4972973;28;20039;-78
2022/11/03 09:56:23;;;;;;;12.48;3.22;;;14.00;99.90;;;;;;4969390;28;20046;-79
2022/11/03 09:58:49;;;;;;;9.38;3.00;;;14.20;99.90;;;;;;4970759;28;20058;-79
2022/11/03 10:01:15;;;;;;;10.95;3.03;;;14.20;99.90;;;;;;4976755;28;20058;-79
2022/11/03 10:03:41;;;;;;;14.13;3.38;;;14.30;99.90;;;;;;4955787;28;20055;-78
2022/11/03 10:06:07;;;;;;;12.98;3.30;;;14.40;99.90;;;;;;4962049;28;20384;-79
2022/11/03 10:08:35;;;;;;;15.25;3.33;;;14.40;99.90;;;;;;4958540;28;20059;-80
2022/11/03 10:11:03;;;;;;;13.07;3.13;;;14.50;99.90;;;;;;4959669;28;20106;-77
2022/11/03 10:13:34;;;;;;;12.35;2.92;;;14.50;99.90;;;;;;4958598;28;20039;-76
2022/11/03 10:16:04;;;;;;;12.02;2.90;;;14.60;99.90;;;;;;4970185;28;20137;-77
2022/11/03 10:18:31;;;;;;;10.98;3.22;;;14.60;99.90;;;;;;4959032;28;20379;-78
2022/11/03 10:21:02;;;;;;;11.38;3.25;;;14.60;99.90;;;;;;4968616;28;20055;-81
2022/11/03 10:23:27;;;;;;;12.93;2.67;;;14.60;99.90;;;;;;4970672;28;20050;-79
2022/11/03 10:26:07;;;;;;;11.93;3.25;;;14.60;99.90;;;;;;4939443;28;20106;-76
2022/11/03 10:28:33;;;;;;;11.10;3.08;;;14.60;99.90;;;;;;4962562;28;20039;-77
2022/11/03 10:31:08;;;;;;;12.68;2.90;;;14.60;99.90;;;;;;4963635;28;20421;-82
2022/11/03 10:33:50;;;;;;;10.90;3.00;;;14.60;99.90;;;;;;4955645;28;20145;-79
2022/11/03 10:36:16;;;;;;;11.57;3.20;;;14.50;99.90;;;;;;4969935;28;20128;-79
2022/11/03 10:38:42;;;;;;;14.18;3.33;;;14.50;99.90;;;;;;4959294;28;20078;-78
2022/11/03 10:41:20;;;;;;;13.57;3.10;;;14.50;99.90;;;;;;4958050;28;20554;-82
2022/11/03 10:44:09;;;;;;;10.18;3.05;;;14.60;99.90;;;;;;4957493;28;20090;-81
2022/11/03 10:46:36;;;;;;;11.60;3.15;;;14.50;99.90;;;;;;4956545;28;20407;-79
2022/11/03 10:49:15;;;;;;;12.40;3.30;;;14.50;99.90;;;;;;4967180;28;20057;-81
2022/11/03 10:51:43;;;;;;;12.13;3.20;;;14.50;99.90;;;;;;4967859;28;20053;-75
2022/11/03 10:54:15;;;;;;;14.57;3.28;;;14.60;99.90;;;;;;4954735;28;20092;-78
2022/11/03 10:56:41;;;;;;;10.25;2.60;;;14.60;99.90;;;;;;4968840;28;20487;-79
2022/11/03 10:59:20;;;;;;;10.35;2.92;;;14.60;99.90;;;;;;4956148;28;20066;-78
2022/11/03 11:01:46;;;;;;;12.07;3.33;;;14.70;99.90;;;;;;4943141;28;20125;-79
2022/11/03 11:04:17;;;;;;;13.30;3.25;;;14.70;99.90;;;;;;4961227;28;20543;-79
2022/11/03 11:06:43;;;;;;;12.40;2.90;;;14.80;99.90;;;;;;4969505;28;20042;-79
2022/11/03 11:09:12;;;;;;;13.00;2.80;;;15.00;99.90;;;;;;4974995;28;20574;-80
2022/11/03 11:11:38;;;;;;;11.07;2.85;;;15.10;99.90;;;;;;4956589;28;20051;-81
2022/11/03 11:14:43;;;;;;;10.30;2.63;;;15.20;99.90;;;;;;4942944;28;20126;-81
2022/11/03 11:17:41;;;;;;;10.55;2.50;;;15.20;99.90;;;;;;4954354;28;20122;-80
2022/11/03 11:20:20;;;;;;;14.15;2.85;;;15.30;99.90;;;;;;4961213;28;20083;-77
2022/11/03 11:22:47;;;;;;;11.48;2.63;;;15.30;99.90;;;;;;4960217;28;20371;-80
2022/11/03 11:25:12;;;;;;;10.35;2.78;;;15.40;99.90;;;;;;4960465;28;20047;-80
2022/11/03 11:27:38;;;;;;;12.25;2.80;;;15.30;99.90;;;;;;4965155;28;20521;-80
2022/11/03 11:30:25;;;;;;;8.73;2.53;;;15.30;99.90;;;;;;4968155;28;20050;-82
2022/11/03 11:32:59;;;;;;;9.98;2.85;;;15.30;99.90;;;;;;4941275;28;20105;-79
2022/11/03 11:35:25;;;;;;;10.32;2.85;;;15.20;99.90;;;;;;4969657;28;20086;-78
2022/11/03 11:37:51;;;;;;;10.68;2.40;;;15.20;99.90;;;;;;4969255;28;20047;-81
2022/11/03 11:40:23;;;;;;;9.10;2.58;;;15.20;99.90;;;;;;4974621;28;20402;-81
2022/11/03 11:43:01;;;;;;;11.00;2.83;;;15.10;99.90;;;;;;4965931;28;20046;-78
2022/11/03 11:46:04;;;;;;;10.82;2.50;;;15.20;99.90;;;;;;4963309;28;20046;-81
2022/11/03 11:48:31;;;;;;;8.30;2.45;;;15.20;99.90;;;;;;4952086;28;20082;-79
2022/11/03 11:50:57;;;;;;;10.57;2.40;;;15.10;99.90;;;;;;4967330;28;20139;-79
2022/11/03 11:53:24;;;;;;;10.73;2.53;;;15.10;99.90;;;;;;4964218;28;20047;-76
2022/11/03 11:55:53;;;;;;;9.48;2.50;;;15.00;99.90;;;;;;4962416;28;20087;-80
2022/11/03 11:58:23;;;;;;;9.35;2.35;;;15.10;99.90;;;;;;4962142;28;20085;-82
2022/11/03 12:00:55;;;;;;;10.20;2.40;;;15.00;99.90;;;;;;4967244;28;20066;-79
2022/11/03 12:03:32;;;;;;;10.02;2.53;;;14.90;99.90;;;;;;4961024;28;20047;-81
2022/11/03 12:05:58;;;;;;;10.98;2.40;;;14.90;99.90;;;;;;4959986;28;20047;-80
2022/11/03 12:08:29;;;;;;;8.88;2.40;;;14.80;99.90;;;;;;4977924;28;20191;-82
2022/11/03 12:11:00;;;;;;;12.23;2.33;;;14.80;99.90;;;;;;4969055;28;20058;-80
2022/11/03 12:13:47;;;;;;;9.68;2.60;;;14.70;99.90;;;;;;4964183;28;20550;-81
2022/11/03 12:16:32;;;;;;;8.52;2.63;;;14.70;99.90;;;;;;4972143;28;20039;-80
2022/11/03 12:19:33;;;;;;;8.40;2.15;;;14.70;99.90;;;;;;4956830;28;20051;-81
2022/11/03 12:21:59;;;;;;;7.38;2.15;;;14.70;99.90;;;;;;4983214;28;20077;-82
2022/11/03 12:24:31;;;;;;;10.35;2.65;;;14.70;99.90;;;;;;4961033;28;20047;-79
2022/11/03 12:27:01;;;;;;;10.23;2.38;;;14.70;99.90;;;;;;4959608;28;20059;-80
2022/11/03 12:29:26;;;;;;;6.80;1.92;;;14.60;99.90;;;;;;4958293;28;20035;-78
2022/11/03 12:31:53;;;;;;;8.50;2.47;;;14.70;99.90;;;;;;4960459;28;20053;-78
2022/11/03 12:34:18;;;;;;;8.40;2.35;;;14.70;99.90;;;;;;4966329;28;20068;-77
2022/11/03 12:36:45;;;;;;;9.05;2.38;;;14.70;99.90;;;;;;4950775;28;20122;-79
2022/11/03 12:39:11;;;;;;;7.40;2.38;;;14.70;99.90;;;;;;4954752;28;20043;-79
2022/11/03 12:41:37;;;;;;;9.48;2.20;;;14.70;99.90;;;;;;4968707;28;20055;-78
2022/11/03 12:44:03;;;;;;;9.27;2.22;;;14.70;99.90;;;;;;4953183;28;20142;-81
2022/11/03 12:46:29;;;;;;;9.45;2.15;;;14.70;99.90;;;;;;4954962;28;20055;-80
2022/11/03 12:48:55;;;;;;;7.70;1.95;;;14.60;99.90;;;;;;4974085;28;20050;-80
2022/11/03 12:51:23;;;;;;;8.90;2.35;;;14.60;99.90;;;;;;4952625;28;20459;-78
2022/11/03 12:53:49;;;;;;;8.48;2.22;;;14.60;99.90;;;;;;4953522;28;20054;-77
2022/11/03 12:56:16;;;;;;;6.00;1.80;;;14.60;99.90;;;;;;4951294;28;20061;-78
2022/11/03 12:58:42;;;;;;;8.20;1.92;;;14.60;99.90;;;;;;4949960;28;20043;-77
2022/11/03 13:01:08;;;;;;;9.70;1.90;;;14.60;99.90;;;;;;4969900;28;20055;-78
2022/11/03 13:03:35;;;;;;;9.15;2.30;;;14.60;99.90;;;;;;4952996;28;20047;-78
2022/11/03 13:06:03;;;;;;;9.88;2.30;;;14.60;99.90;;;;;;4956779;28;20075;-79
2022/11/03 13:08:32;;;;;;;10.38;2.40;;;14.60;99.90;;;;;;4986017;28;20061;-79
2022/11/03 13:10:58;;;;;;;10.23;2.47;;;14.60;99.90;;;;;;4948285;28;20061;-79
2022/11/03 13:13:24;;;;;;;7.55;1.77;;;14.70;99.90;;;;;;4955053;28;20039;-76
2022/11/03 13:15:51;;;;;;;9.38;2.10;;;14.70;99.90;;;;;;4954507;28;20051;-78